Startpagina
METAR-TAF:

METAR-TAF

Vliegvelden :

Productieplatform

J6-a, Nederland

breedte: 53-49-27N, lengte: 2-56-43E, hoogte: 34 m

Actueel weer

Dit bericht is 34 minuten geleden gemaakt, om 07:25 UTC
Wind 24 kt uit het oostzuidoosten
Temperatuur 7°C
Vochtigheid 70%
Druk 1010 hPa
Zicht 10 km of meer

METAR: EHJA 210725Z AUTO 12024KT 9999 FEW015/// 07/02 Q1010 W///H///

Tijdstip: 08:59 (07:59 UTC)


TAF: ontbreekt

Waarnemingen en weersverwachtingen van meer dan 4000 vliegvelden (METAR en TAF).

De beschikbare stations zijn de gele en rode punten op de kaart.

Ga met uw muis naar het station om de naam te zien.

Klik dan om waarnemingen en weersverwachtingen te zien.

kaart wijzigen: klik op de groene knoppen met een zwart kruis om in te zoomen, op de groene knop met een streepje om uit te zoomen of op de groene pijlen voor aangrenzende kaarten.


METAR-TAF: